Map

Track Data

SID SEASON NUMBER BASIN SUBBASIN NAME ISO_TIME NATURE LAT LON WMO_WIND WMO_PRES WMO_AGENCY TRACK_TYPE DIST2LAND LANDFALL IFLAG USA_AGENCY USA_ATCF_ID USA_LAT USA_LON USA_RECORD USA_STATUS USA_WIND USA_PRES USA_SSHS USA_R34_NE USA_R34_SE USA_R34_SW USA_R34_NW USA_R50_NE USA_R50_SE USA_R50_SW USA_R50_NW USA_R64_NE USA_R64_SE USA_R64_SW USA_R64_NW USA_POCI USA_ROCI USA_RMW USA_EYE TOKYO_LAT TOKYO_LON TOKYO_GRADE TOKYO_WIND TOKYO_PRES TOKYO_R50_DIR TOKYO_R50_LONG TOKYO_R50_SHORT TOKYO_R30_DIR TOKYO_R30_LONG TOKYO_R30_SHORT TOKYO_LAND CMA_LAT CMA_LON CMA_CAT CMA_WIND CMA_PRES HKO_LAT HKO_LON HKO_CAT HKO_WIND HKO_PRES NEWDELHI_LAT NEWDELHI_LON NEWDELHI_GRADE NEWDELHI_WIND NEWDELHI_PRES NEWDELHI_CI NEWDELHI_DP NEWDELHI_POCI REUNION_LAT REUNION_LON REUNION_TYPE REUNION_WIND REUNION_PRES REUNION_TNUM REUNION_CI REUNION_RMW REUNION_R34_NE REUNION_R34_SE REUNION_R34_SW REUNION_R34_NW REUNION_R50_NE REUNION_R50_SE REUNION_R50_SW REUNION_R50_NW REUNION_R64_NE REUNION_R64_SE REUNION_R64_SW REUNION_R64_NW BOM_LAT BOM_LON BOM_TYPE BOM_WIND BOM_PRES BOM_TNUM BOM_CI BOM_RMW BOM_R34_NE BOM_R34_SE BOM_R34_SW BOM_R34_NW BOM_R50_NE BOM_R50_SE BOM_R50_SW BOM_R50_NW BOM_R64_NE BOM_R64_SE BOM_R64_SW BOM_R64_NW BOM_ROCI BOM_POCI BOM_EYE BOM_POS_METHOD BOM_PRES_METHOD NADI_LAT NADI_LON NADI_CAT NADI_WIND NADI_PRES WELLINGTON_LAT WELLINGTON_LON WELLINGTON_WIND WELLINGTON_PRES DS824_LAT DS824_LON DS824_STAGE DS824_WIND DS824_PRES TD9636_LAT TD9636_LON TD9636_STAGE TD9636_WIND TD9636_PRES TD9635_LAT TD9635_LON TD9635_WIND TD9635_PRES TD9635_ROCI NEUMANN_LAT NEUMANN_LON NEUMANN_CLASS NEUMANN_WIND NEUMANN_PRES MLC_LAT MLC_LON MLC_CLASS MLC_WIND MLC_PRES USA_GUST BOM_GUST BOM_GUST_PER REUNION_GUST REUNION_GUST_PER USA_SEAHGT USA_SEARAD_NE USA_SEARAD_SE USA_SEARAD_SW USA_SEARAD_NW STORM_SPEED STORM_DIR
1921069S14067 1921 14 SI MM NOT_NAMED 1921-03-10 00:00:00 TS -13.8000 67.3000 main 1240 1183 _________O____ -1 -13.8000 67.3000 TC 25 12 250
1921069S14067 1921 14 SI MM NOT_NAMED 1921-03-10 03:00:00 TS -14.0003 66.7427 main 1174 1118 _________P____ -1 -14.0003 66.7427 TC 25 11 249
1921069S14067 1921 14 SI MM NOT_NAMED 1921-03-10 06:00:00 TS -14.2000 66.2000 main 1118 1062 _________O____ -1 -14.2000 66.2000 TC 25 11 249
1921069S14067 1921 14 SI MM NOT_NAMED 1921-03-10 09:00:00 TS -14.3999 65.6849 main 1062 1005 _________P____ -1 -14.3999 65.6849 TC 25 11 248
1921069S14067 1921 14 SI MM NOT_NAMED 1921-03-10 12:00:00 TS -14.6000 65.2000 main 1005 958 _________O____ -1 -14.6000 65.2000 TC 25 10 247
1921069S14067 1921 14 SI MM NOT_NAMED 1921-03-10 15:00:00 TS -14.7924 64.7424 main 950 902 _________P____ -1 -14.7924 64.7424 TC 25 10 245
1921069S14067 1921 14 SI MM NOT_NAMED 1921-03-10 18:00:00 TS -15.0000 64.3000 main 902 855 _________O____ -1 -15.0000 64.3000 TC 25 10 242
1921069S14067 1921 14 SI MM NOT_NAMED 1921-03-10 21:00:00 TS -15.2424 63.8574 main 855 793 _________P____ -1 -15.2424 63.8574 TC 25 10 240
1921069S14067 1921 14 SI MM NOT_NAMED 1921-03-11 00:00:00 TS -15.5000 63.4000 main 793 738 _________O____ -1 -15.5000 63.4000 TC 25 11 241
1921069S14067 1921 14 SI MM NOT_NAMED 1921-03-11 03:00:00 TS -15.7500 62.8999 main 738 676 _________P____ -1 -15.7500 62.8999 TC 25 11 243
1921069S14067 1921 14 SI MM NOT_NAMED 1921-03-11 06:00:00 TS -16.0000 62.4000 main 676 629 _________O____ -1 -16.0000 62.4000 TC 25 10 242
1921069S14067 1921 14 SI MM NOT_NAMED 1921-03-11 09:00:00 TS -16.2347 61.9646 main 629 568 _________P____ -1 -16.2347 61.9646 TC 25 10 240
1921069S14067 1921 14 SI MM NOT_NAMED 1921-03-11 12:00:00 TS -16.5000 61.5000 main 568 507 _________O____ -1 -16.5000 61.5000 TC 25 12 239
1921069S14067 1921 14 SI MM NOT_NAMED 1921-03-11 15:00:00 TS -16.8350 60.9225 main 500 424 _________P____ -1 -16.8350 60.9225 TC 25 13 239
1921069S14067 1921 14 SI MM NOT_NAMED 1921-03-11 18:00:00 TS -17.2000 60.3000 main 424 350 _________O____ -1 -17.2000 60.3000 TC 25 14 238
1921069S14067 1921 14 SI MM NOT_NAMED 1921-03-11 21:00:00 TS -17.5726 59.6627 main 350 286 _________P____ -1 -17.5726 59.6627 TC 25 13 239
1921069S14067 1921 14 SI MM NOT_NAMED 1921-03-12 00:00:00 TS -17.9000 59.1000 main 286 247 _________O____ -1 -17.9000 59.1000 TC 25 11 238
1921069S14067 1921 14 SI MM NOT_NAMED 1921-03-12 03:00:00 TS -18.1296 58.7196 main 247 214 _________P____ -1 -18.1296 58.7196 TC 25 8 239
1921069S14067 1921 14 SI MM NOT_NAMED 1921-03-12 06:00:00 TS -18.3000 58.4000 main 214 192 _________O____ -1 -18.3000 58.4000 TC 25 8 244
1921069S14067 1921 14 SI MM NOT_NAMED 1921-03-12 09:00:00 TS -18.4575 57.9999 main 181 167 _________P____ -1 -18.4575 57.9999 TC 25 8 248
1921069S14067 1921 14 SI MM NOT_NAMED 1921-03-12 12:00:00 TS -18.6000 57.6000 main 167 156 _________O____ -1 -18.6000 57.6000 TC 25 8 248
1921069S14067 1921 14 SI MM NOT_NAMED 1921-03-12 15:00:00 TS -18.7424 57.2424 main 159 144 _________P____ -1 -18.7424 57.2424 TC 25 7 246
1921069S14067 1921 14 SI MM NOT_NAMED 1921-03-12 18:00:00 TS -18.9000 56.9000 main 148 143 _________O____ -1 -18.9000 56.9000 TC 25 8 242
1921069S14067 1921 14 SI MM NOT_NAMED 1921-03-12 21:00:00 TS -19.1000 56.5276 main 153 152 _________P____ -1 -19.1000 56.5276 TC 25 8 239
1921069S14067 1921 14 SI MM NOT_NAMED 1921-03-13 00:00:00 TS -19.3000 56.2000 main 162 162 _________O____ -1 -19.3000 56.2000 TC 25 6 236
1921069S14067 1921 14 SI MM NOT_NAMED 1921-03-13 03:00:00 TS -19.4499 55.9773 main 175 156 _________P____ -1 -19.4499 55.9773 TC 25 5 231
1921069S14067 1921 14 SI MM NOT_NAMED 1921-03-13 06:00:00 TS -19.6000 55.8000 main 156 134 _________O____ -1 -19.6000 55.8000 TC 25 5 225
1921069S14067 1921 14 SI MM NOT_NAMED 1921-03-13 09:00:00 TS -19.8150 55.5851 main 134 111 _________P____ -1 -19.8150 55.5851 TC 25 6 223
1921069S14067 1921 14 SI MM NOT_NAMED 1921-03-13 12:00:00 TS -20.0000 55.4000 main 111 100 _________O____ -1 -20.0000 55.4000 TC 25 4 229
1921069S14067 1921 14 SI MM NOT_NAMED 1921-03-13 15:00:00 TS -20.0650 55.2774 main 100 100 _________P____ -1 -20.0650 55.2774 TC 25 2 242
1921069S14067 1921 14 SI MM NOT_NAMED 1921-03-13 18:00:00 TS -20.1000 55.2000 main 101 90 _________O____ -1 -20.1000 55.2000 TC 25 2 228
1921069S14067 1921 14 SI MM NOT_NAMED 1921-03-13 21:00:00 TS -20.1775 55.1425 main 91 81 _________P____ -1 -20.1775 55.1425 TC 25 2 207
1921069S14067 1921 14 SI MM NOT_NAMED 1921-03-14 00:00:00 TS -20.3000 55.1000 main 81 59 _________O____ -1 -20.3000 55.1000 TC 25 3 197
1921069S14067 1921 14 SI MM NOT_NAMED 1921-03-14 03:00:00 TS -20.4850 55.0425 main 64 45 _________P____ -1 -20.4850 55.0425 TC 25 4 193
1921069S14067 1921 14 SI MM NOT_NAMED 1921-03-14 06:00:00 TS -20.7000 55.0000 main 45 30 _________O____ -1 -20.7000 55.0000 TC 25 4 185
1921069S14067 1921 14 SI MM NOT_NAMED 1921-03-14 09:00:00 TS -20.8925 54.9925 main 30 20 _________P____ -1 -20.8925 54.9925 TC 25 4 0
1921069S14067 1921 14 SI MM NOT_NAMED 1921-03-14 12:00:00 TS -21.1000 55.0000 main 20 20 _________O____ -1 -21.1000 55.0000 TC 25 5 183
1921069S14067 1921 14 SI MM NOT_NAMED 1921-03-14 15:00:00 TS -21.3500 54.9851 main 30 30 _________P____ -1 -21.3500 54.9851 TC 25 5 178
1921069S14067 1921 14 SI MM NOT_NAMED 1921-03-14 18:00:00 TS -21.6000 55.0000 main 45 45 _________O____ -1 -21.6000 55.0000 TC 25 5 169
1921069S14067 1921 14 SI MM NOT_NAMED 1921-03-14 21:00:00 TS -21.8075 55.0775 main 59 59 _________P____ -1 -21.8075 55.0775 TC 25 4 155
1921069S14067 1921 14 SI MM NOT_NAMED 1921-03-15 00:00:00 TS -22.0000 55.2000 main 78 78 _________O____ -1 -22.0000 55.2000 TC 25 5 149
1921069S14067 1921 14 SI MM NOT_NAMED 1921-03-15 03:00:00 TS -22.2000 55.3350 main 94 91 _________P____ -1 -22.2000 55.3350 TC 25 5 145
1921069S14067 1921 14 SI MM NOT_NAMED 1921-03-15 06:00:00 TS -22.4000 55.5000 main 112 112 _________O____ -1 -22.4000 55.5000 TC 25 5 141
1921069S14067 1921 14 SI MM NOT_NAMED 1921-03-15 09:00:00 TS -22.6075 55.6925 main 134 134 _________P____ -1 -22.6075 55.6925 TC 25 5 137
1921069S14067 1921 14 SI MM NOT_NAMED 1921-03-15 12:00:00 TS -22.8000 55.9000 main 159 159 _________O____ -1 -22.8000 55.9000 TC 25 5 134
1921069S14067 1921 14 SI MM NOT_NAMED 1921-03-15 15:00:00 TS -22.9574 56.0926 main 186 186 _________P____ -1 -22.9574 56.0926 TC 25 5 129
1921069S14067 1921 14 SI MM NOT_NAMED 1921-03-15 18:00:00 TS -23.1000 56.3000 main 203 203 _________O____ -1 -23.1000 56.3000 TC 25 5 125
1921069S14067 1921 14 SI MM NOT_NAMED 1921-03-15 21:00:00 TS -23.2500 56.5425 main 221 221 _________P____ -1 -23.2500 56.5425 TC 25 5 123
1921069S14067 1921 14 SI MM NOT_NAMED 1921-03-16 00:00:00 TS -23.4000 56.8000 main 255 255 _________O____ -1 -23.4000 56.8000 TC 25 5 123
1921069S14067 1921 14 SI MM NOT_NAMED 1921-03-16 03:00:00 TS -23.5499 57.0426 main 275 275 _________P____ -1 -23.5499 57.0426 TC 25 5 123
1921069S14067 1921 14 SI MM NOT_NAMED 1921-03-16 06:00:00 TS -23.7000 57.3000 main 309 309 _________O____ -1 -23.7000 57.3000 TC 25 6 120
1921069S14067 1921 14 SI MM NOT_NAMED 1921-03-16 09:00:00 TS -23.8500 57.6000 main 344 344 _________P____ -1 -23.8500 57.6000 TC 25 6 119
1921069S14067 1921 14 SI MM NOT_NAMED 1921-03-16 12:00:00 TS -24.0000 57.9000 main 370 370 _________O____ -1 -24.0000 57.9000 TC 25 6 121
1921069S14067 1921 14 SI MM NOT_NAMED 1921-03-16 15:00:00 TS -24.1499 58.1501 main 398 398 _________P____ -1 -24.1499 58.1501 TC 25 5 123
1921069S14067 1921 14 SI MM NOT_NAMED 1921-03-16 18:00:00 TS -24.3000 58.4000 main 428 428 _________O____ -1 -24.3000 58.4000 TC 25 6 122
1921069S14067 1921 14 SI MM NOT_NAMED 1921-03-16 21:00:00 TS -24.4423 58.6627 main 447 447 _________P____ -1 -24.4423 58.6627 TC 25 6 119
1921069S14067 1921 14 SI MM NOT_NAMED 1921-03-17 00:00:00 TS -24.6000 59.0000 main 477 477 _________O____ -1 -24.6000 59.0000 TC 25 8 116
1921069S14067 1921 14 SI MM NOT_NAMED 1921-03-17 03:00:00 TS -24.7926 59.4700 main 514 514 _________P____ -1 -24.7926 59.4700 TC 25 10 114
1921069S14067 1921 14 SI MM NOT_NAMED 1921-03-17 06:00:00 TS -25.0000 60.0000 main 555 555 _________O____ -1 -25.0000 60.0000 TC 25 10 113
1921069S14067 1921 14 SI MM NOT_NAMED 1921-03-17 09:00:00 TS -25.1923 60.4928 main 598 598 _________P____ -1 -25.1923 60.4928 TC 25 10 114
1921069S14067 1921 14 SI MM NOT_NAMED 1921-03-17 12:00:00 TS -25.4000 61.0000 main 643 643 _________O____ -1 -25.4000 61.0000 TC 25 10 116
1921069S14067 1921 14 SI MM NOT_NAMED 1921-03-17 15:00:00 TS -25.6498 61.5350 main 689 689 _________P____ -1 -25.6498 61.5350 TC 25 11 117
1921069S14067 1921 14 SI MM NOT_NAMED 1921-03-17 18:00:00 TS -25.9000 62.1000 main 752 752 _________O____ -1 -25.9000 62.1000 TC 25 11 114
1921069S14067 1921 14 SI MM NOT_NAMED 1921-03-17 21:00:00 TS -26.1130 62.6922 main 807 807 _________P____ -1 -26.1130 62.6922 TC 25 11 110
1921069S14067 1921 14 SI MM NOT_NAMED 1921-03-18 00:00:00 TS -26.3000 63.3000 main 863 _________O____ -1 -26.3000 63.3000 TC 25 12 109

About IBTrACS Database

This database is a web-friendly format of International Best Track Archive for Climate Stewardship (IBTrACS), a global best track data archive curated by NOAA dating back to 1842.

Updated: 2021-12-06